sensor_id;sensor_type;location;lat;lon;timestamp;temperature;humidity
40732;DHT22;26420;52.256;9.096;2022-09-03T00:01:47;18.20;82.30
40732;DHT22;26420;52.256;9.096;2022-09-03T00:07:01;18.20;82.30
40732;DHT22;26420;52.256;9.096;2022-09-03T00:12:10;18.20;82.20
40732;DHT22;26420;52.256;9.096;2022-09-03T00:17:17;18.20;82.20
40732;DHT22;26420;52.256;9.096;2022-09-03T00:22:50;18.20;82.00
40732;DHT22;26420;52.256;9.096;2022-09-03T00:27:55;18.20;82.20
40732;DHT22;26420;52.256;9.096;2022-09-03T00:33:02;18.20;82.20
40732;DHT22;26420;52.256;9.096;2022-09-03T00:38:07;18.20;82.30
40732;DHT22;26420;52.256;9.096;2022-09-03T00:43:20;18.10;82.70
40732;DHT22;26420;52.256;9.096;2022-09-03T00:48:29;18.10;82.70
40732;DHT22;26420;52.256;9.096;2022-09-03T00:53:52;18.10;82.90
40732;DHT22;26420;52.256;9.096;2022-09-03T00:59:17;18.00;83.30
40732;DHT22;26420;52.256;9.096;2022-09-03T01:04:33;17.80;83.60
40732;DHT22;26420;52.256;9.096;2022-09-03T01:09:54;17.70;83.80
40732;DHT22;26420;52.256;9.096;2022-09-03T01:15:16;17.70;84.10
40732;DHT22;26420;52.256;9.096;2022-09-03T01:20:48;17.70;84.40
40732;DHT22;26420;52.256;9.096;2022-09-03T01:31:01;17.60;84.90
40732;DHT22;26420;52.256;9.096;2022-09-03T01:47:03;17.50;85.40
40732;DHT22;26420;52.256;9.096;2022-09-03T01:57:56;17.40;86.00
40732;DHT22;26420;52.256;9.096;2022-09-03T02:03:04;17.30;86.30
40732;DHT22;26420;52.256;9.096;2022-09-03T02:08:08;17.30;86.20
40732;DHT22;26420;52.256;9.096;2022-09-03T02:13:22;17.30;86.20
40732;DHT22;26420;52.256;9.096;2022-09-03T02:18:27;17.20;86.50
40732;DHT22;26420;52.256;9.096;2022-09-03T02:23:30;17.20;86.60
40732;DHT22;26420;52.256;9.096;2022-09-03T02:28:32;17.10;87.20
40732;DHT22;26420;52.256;9.096;2022-09-03T02:33:38;17.00;87.50
40732;DHT22;26420;52.256;9.096;2022-09-03T02:38:41;16.90;87.80
40732;DHT22;26420;52.256;9.096;2022-09-03T02:44:02;17.00;88.00
40732;DHT22;26420;52.256;9.096;2022-09-03T02:49:05;16.90;88.20
40732;DHT22;26420;52.256;9.096;2022-09-03T02:54:08;16.90;88.40
40732;DHT22;26420;52.256;9.096;2022-09-03T02:59:10;16.80;88.70
40732;DHT22;26420;52.256;9.096;2022-09-03T03:04:12;16.80;88.90
40732;DHT22;26420;52.256;9.096;2022-09-03T03:09:14;16.80;89.30
40732;DHT22;26420;52.256;9.096;2022-09-03T03:14:17;16.70;89.50
40732;DHT22;26420;52.256;9.096;2022-09-03T03:19:19;16.70;89.90
40732;DHT22;26420;52.256;9.096;2022-09-03T03:24:20;16.70;90.10
40732;DHT22;26420;52.256;9.096;2022-09-03T03:29:22;16.60;90.10
40732;DHT22;26420;52.256;9.096;2022-09-03T03:34:25;16.50;90.40
40732;DHT22;26420;52.256;9.096;2022-09-03T03:39:27;16.50;90.50
40732;DHT22;26420;52.256;9.096;2022-09-03T03:44:28;16.40;90.60
40732;DHT22;26420;52.256;9.096;2022-09-03T03:49:30;16.40;90.70
40732;DHT22;26420;52.256;9.096;2022-09-03T03:54:32;16.40;90.90
40732;DHT22;26420;52.256;9.096;2022-09-03T03:59:33;16.40;90.90
40732;DHT22;26420;52.256;9.096;2022-09-03T04:04:35;16.40;90.90
40732;DHT22;26420;52.256;9.096;2022-09-03T04:09:37;16.30;91.10
40732;DHT22;26420;52.256;9.096;2022-09-03T04:14:39;16.30;91.20
40732;DHT22;26420;52.256;9.096;2022-09-03T04:19:40;16.30;91.30
40732;DHT22;26420;52.256;9.096;2022-09-03T04:24:42;16.20;91.40
40732;DHT22;26420;52.256;9.096;2022-09-03T04:29:44;16.30;91.50
40732;DHT22;26420;52.256;9.096;2022-09-03T04:34:46;16.30;91.50
40732;DHT22;26420;52.256;9.096;2022-09-03T04:39:47;16.30;91.60
40732;DHT22;26420;52.256;9.096;2022-09-03T04:44:49;16.30;91.60
40732;DHT22;26420;52.256;9.096;2022-09-03T04:49:51;16.30;91.60
40732;DHT22;26420;52.256;9.096;2022-09-03T04:54:54;16.30;91.70
40732;DHT22;26420;52.256;9.096;2022-09-03T04:59:56;16.30;91.80
40732;DHT22;26420;52.256;9.096;2022-09-03T05:04:57;16.40;91.70
40732;DHT22;26420;52.256;9.096;2022-09-03T05:09:59;16.40;91.70
40732;DHT22;26420;52.256;9.096;2022-09-03T05:15:00;16.40;91.80
40732;DHT22;26420;52.256;9.096;2022-09-03T05:20:03;16.40;91.80
40732;DHT22;26420;52.256;9.096;2022-09-03T05:25:05;16.50;91.70
40732;DHT22;26420;52.256;9.096;2022-09-03T05:30:07;16.60;91.80
40732;DHT22;26420;52.256;9.096;2022-09-03T05:35:09;16.60;91.60
40732;DHT22;26420;52.256;9.096;2022-09-03T05:40:11;16.60;91.70
40732;DHT22;26420;52.256;9.096;2022-09-03T05:45:13;16.60;91.70
40732;DHT22;26420;52.256;9.096;2022-09-03T05:50:14;16.70;91.60
40732;DHT22;26420;52.256;9.096;2022-09-03T05:55:16;16.80;91.60
40732;DHT22;26420;52.256;9.096;2022-09-03T06:00:20;16.90;91.60
40732;DHT22;26420;52.256;9.096;2022-09-03T06:05:22;17.00;91.40
40732;DHT22;26420;52.256;9.096;2022-09-03T06:10:24;17.10;91.30
40732;DHT22;26420;52.256;9.096;2022-09-03T06:15:32;17.20;91.30
40732;DHT22;26420;52.256;9.096;2022-09-03T06:20:34;17.40;91.00
40732;DHT22;26420;52.256;9.096;2022-09-03T06:25:37;17.50;91.00
40732;DHT22;26420;52.256;9.096;2022-09-03T06:30:42;17.50;90.80
40732;DHT22;26420;52.256;9.096;2022-09-03T06:35:44;17.70;90.80
40732;DHT22;26420;52.256;9.096;2022-09-03T06:40:54;17.90;90.60
40732;DHT22;26420;52.256;9.096;2022-09-03T06:45:57;18.00;90.30
40732;DHT22;26420;52.256;9.096;2022-09-03T06:51:01;18.20;90.30
40732;DHT22;26420;52.256;9.096;2022-09-03T06:56:06;18.30;90.10
40732;DHT22;26420;52.256;9.096;2022-09-03T07:01:16;18.50;90.10
40732;DHT22;26420;52.256;9.096;2022-09-03T07:06:19;18.60;89.60
40732;DHT22;26420;52.256;9.096;2022-09-03T07:11:23;18.70;89.20
40732;DHT22;26420;52.256;9.096;2022-09-03T07:16:28;18.70;89.30
40732;DHT22;26420;52.256;9.096;2022-09-03T07:21:32;18.90;89.30
40732;DHT22;26420;52.256;9.096;2022-09-03T07:26:39;19.10;88.70
40732;DHT22;26420;52.256;9.096;2022-09-03T07:31:42;19.10;88.70
40732;DHT22;26420;52.256;9.096;2022-09-03T07:36:46;19.30;88.30
40732;DHT22;26420;52.256;9.096;2022-09-03T07:41:49;19.50;88.20
40732;DHT22;26420;52.256;9.096;2022-09-03T07:46:51;19.60;87.50
40732;DHT22;26420;52.256;9.096;2022-09-03T07:51:53;19.60;87.40
40732;DHT22;26420;52.256;9.096;2022-09-03T07:56:55;19.70;87.30
40732;DHT22;26420;52.256;9.096;2022-09-03T08:01:58;19.90;87.50
40732;DHT22;26420;52.256;9.096;2022-09-03T08:06:59;20.10;86.80
40732;DHT22;26420;52.256;9.096;2022-09-03T08:12:01;20.20;87.10
40732;DHT22;26420;52.256;9.096;2022-09-03T08:17:03;20.20;85.70
40732;DHT22;26420;52.256;9.096;2022-09-03T08:22:05;20.30;86.60
40732;DHT22;26420;52.256;9.096;2022-09-03T08:27:07;20.50;86.20
40732;DHT22;26420;52.256;9.096;2022-09-03T08:32:08;20.70;86.10
40732;DHT22;26420;52.256;9.096;2022-09-03T08:37:14;20.70;85.40
40732;DHT22;26420;52.256;9.096;2022-09-03T08:42:25;20.70;84.90
40732;DHT22;26420;52.256;9.096;2022-09-03T08:47:32;21.00;85.00
40732;DHT22;26420;52.256;9.096;2022-09-03T08:52:36;21.20;84.20
40732;DHT22;26420;52.256;9.096;2022-09-03T08:58:09;21.30;83.50
40732;DHT22;26420;52.256;9.096;2022-09-03T09:03:27;21.40;83.90
40732;DHT22;26420;52.256;9.096;2022-09-03T09:13:54;21.80;83.40
40732;DHT22;26420;52.256;9.096;2022-09-03T09:19:18;22.00;82.50
40732;DHT22;26420;52.256;9.096;2022-09-03T09:24:24;22.10;82.90
40732;DHT22;26420;52.256;9.096;2022-09-03T09:29:31;22.20;82.30
40732;DHT22;26420;52.256;9.096;2022-09-03T09:34:37;22.40;82.40
40732;DHT22;26420;52.256;9.096;2022-09-03T09:39:41;22.60;82.00
40732;DHT22;26420;52.256;9.096;2022-09-03T09:44:53;22.80;82.10
40732;DHT22;26420;52.256;9.096;2022-09-03T09:49:57;22.90;81.20
40732;DHT22;26420;52.256;9.096;2022-09-03T09:55:28;23.00;81.30
40732;DHT22;26420;52.256;9.096;2022-09-03T10:00:30;23.00;80.70
40732;DHT22;26420;52.256;9.096;2022-09-03T10:05:34;23.20;79.40
40732;DHT22;26420;52.256;9.096;2022-09-03T10:10:44;23.20;80.70
40732;DHT22;26420;52.256;9.096;2022-09-03T10:16:40;23.40;78.40
40732;DHT22;26420;52.256;9.096;2022-09-03T10:22:11;23.50;78.70
40732;DHT22;26420;52.256;9.096;2022-09-03T10:26:51;23.80;77.70
40732;DHT22;26420;52.256;9.096;2022-09-03T10:32:06;23.80;77.50
40732;DHT22;26420;52.256;9.096;2022-09-03T10:37:20;23.90;77.20
40732;DHT22;26420;52.256;9.096;2022-09-03T11:15:32;25.30;76.00
40732;DHT22;26420;52.256;9.096;2022-09-03T11:20:35;26.70;73.70
40732;DHT22;26420;52.256;9.096;2022-09-03T11:25:43;27.20;72.10
40732;DHT22;26420;52.256;9.096;2022-09-03T11:31:04;26.80;72.60
40732;DHT22;26420;52.256;9.096;2022-09-03T11:36:07;27.40;71.10
40732;DHT22;26420;52.256;9.096;2022-09-03T11:51:32;29.10;67.80
40732;DHT22;26420;52.256;9.096;2022-09-03T11:56:34;29.00;67.20
40732;DHT22;26420;52.256;9.096;2022-09-03T12:01:36;29.00;66.90
40732;DHT22;26420;52.256;9.096;2022-09-03T12:06:58;28.90;65.70
40732;DHT22;26420;52.256;9.096;2022-09-03T12:17:47;29.00;65.40
40732;DHT22;26420;52.256;9.096;2022-09-03T12:23:13;28.80;65.70
40732;DHT22;26420;52.256;9.096;2022-09-03T12:28:30;28.80;65.10
40732;DHT22;26420;52.256;9.096;2022-09-03T12:33:33;28.70;65.40
40732;DHT22;26420;52.256;9.096;2022-09-03T12:38:36;28.50;65.30
40732;DHT22;26420;52.256;9.096;2022-09-03T12:43:58;28.70;65.00
40732;DHT22;26420;52.256;9.096;2022-09-03T12:49:04;28.80;65.00
40732;DHT22;26420;52.256;9.096;2022-09-03T12:54:28;29.00;63.90
40732;DHT22;26420;52.256;9.096;2022-09-03T12:59:32;29.00;64.90
40732;DHT22;26420;52.256;9.096;2022-09-03T13:04:35;29.10;64.10
40732;DHT22;26420;52.256;9.096;2022-09-03T13:09:38;29.20;64.20
40732;DHT22;26420;52.256;9.096;2022-09-03T13:14:46;29.20;63.60
40732;DHT22;26420;52.256;9.096;2022-09-03T13:25:33;27.50;65.40
40732;DHT22;26420;52.256;9.096;2022-09-03T13:36:18;27.20;65.50
40732;DHT22;26420;52.256;9.096;2022-09-03T13:41:37;27.90;64.60
40732;DHT22;26420;52.256;9.096;2022-09-03T13:52:20;29.30;63.70
40732;DHT22;26420;52.256;9.096;2022-09-03T13:57:43;29.70;63.10
40732;DHT22;26420;52.256;9.096;2022-09-03T14:18:32;27.80;65.30
40732;DHT22;26420;52.256;9.096;2022-09-03T14:39:55;28.00;65.00
40732;DHT22;26420;52.256;9.096;2022-09-03T14:56:15;29.20;63.90
40732;DHT22;26420;52.256;9.096;2022-09-03T15:01:27;28.90;63.60
40732;DHT22;26420;52.256;9.096;2022-09-03T15:07:13;27.90;64.60
40732;DHT22;26420;52.256;9.096;2022-09-03T15:23:31;27.50;64.00
40732;DHT22;26420;52.256;9.096;2022-09-03T15:29:02;26.70;65.50
40732;DHT22;26420;52.256;9.096;2022-09-03T15:34:34;26.20;66.30
40732;DHT22;26420;52.256;9.096;2022-09-03T15:39:40;26.00;66.30
40732;DHT22;26420;52.256;9.096;2022-09-03T15:44:48;26.30;65.90
40732;DHT22;26420;52.256;9.096;2022-09-03T15:55:39;28.70;64.40
40732;DHT22;26420;52.256;9.096;2022-09-03T16:00:52;32.60;60.90
40732;DHT22;26420;52.256;9.096;2022-09-03T16:05:57;31.10;59.80
40732;DHT22;26420;52.256;9.096;2022-09-03T16:11:07;29.10;61.70
40732;DHT22;26420;52.256;9.096;2022-09-03T16:16:18;28.00;62.60
40732;DHT22;26420;52.256;9.096;2022-09-03T16:21:50;27.20;63.50
40732;DHT22;26420;52.256;9.096;2022-09-03T16:27:02;26.10;64.60
40732;DHT22;26420;52.256;9.096;2022-09-03T16:38:02;25.10;66.20
40732;DHT22;26420;52.256;9.096;2022-09-03T16:43:29;24.70;66.60
40732;DHT22;26420;52.256;9.096;2022-09-03T16:49:07;24.50;67.10
40732;DHT22;26420;52.256;9.096;2022-09-03T17:05:25;24.00;67.10
40732;DHT22;26420;52.256;9.096;2022-09-03T17:26:51;23.40;67.70
40732;DHT22;26420;52.256;9.096;2022-09-03T17:48:14;22.70;68.60
40732;DHT22;26420;52.256;9.096;2022-09-03T17:53:21;22.60;69.20
40732;DHT22;26420;52.256;9.096;2022-09-03T17:58:34;22.40;69.90
40732;DHT22;26420;52.256;9.096;2022-09-03T18:03:46;22.30;69.80
40732;DHT22;26420;52.256;9.096;2022-09-03T18:09:04;22.10;70.40
40732;DHT22;26420;52.256;9.096;2022-09-03T18:14:33;21.90;70.70
40732;DHT22;26420;52.256;9.096;2022-09-03T18:25:04;21.60;70.90
40732;DHT22;26420;52.256;9.096;2022-09-03T18:30:25;21.60;71.20
40732;DHT22;26420;52.256;9.096;2022-09-03T18:35:47;21.40;71.50
40732;DHT22;26420;52.256;9.096;2022-09-03T18:48:18;21.10;72.10
40732;DHT22;26420;52.256;9.096;2022-09-03T18:53:52;21.00;72.50
40732;DHT22;26420;52.256;9.096;2022-09-03T19:05:14;20.90;72.60
40732;DHT22;26420;52.256;9.096;2022-09-03T19:10:55;20.80;72.70
40732;DHT22;26420;52.256;9.096;2022-09-03T19:16:24;20.80;72.60
40732;DHT22;26420;52.256;9.096;2022-09-03T19:21:51;20.80;72.50
40732;DHT22;26420;52.256;9.096;2022-09-03T19:38:44;20.80;72.70
40732;DHT22;26420;52.256;9.096;2022-09-03T19:44:31;20.80;72.90
40732;DHT22;26420;52.256;9.096;2022-09-03T19:50:18;20.60;73.00
40732;DHT22;26420;52.256;9.096;2022-09-03T19:55:44;20.50;73.20
40732;DHT22;26420;52.256;9.096;2022-09-03T20:01:09;20.40;73.40
40732;DHT22;26420;52.256;9.096;2022-09-03T20:06:32;20.30;73.70
40732;DHT22;26420;52.256;9.096;2022-09-03T20:11:56;20.20;73.90
40732;DHT22;26420;52.256;9.096;2022-09-03T20:17:16;20.10;74.20
40732;DHT22;26420;52.256;9.096;2022-09-03T20:28:02;20.10;74.20
40732;DHT22;26420;52.256;9.096;2022-09-03T20:33:20;20.10;74.20
40732;DHT22;26420;52.256;9.096;2022-09-03T20:54:47;19.80;75.10
40732;DHT22;26420;52.256;9.096;2022-09-03T21:05:43;19.70;75.70
40732;DHT22;26420;52.256;9.096;2022-09-03T21:10:55;19.60;76.20
40732;DHT22;26420;52.256;9.096;2022-09-03T21:26:42;19.60;77.50
40732;DHT22;26420;52.256;9.096;2022-09-03T21:32:01;19.50;77.90
40732;DHT22;26420;52.256;9.096;2022-09-03T21:37:05;19.50;78.30
40732;DHT22;26420;52.256;9.096;2022-09-03T21:42:26;19.40;78.50
40732;DHT22;26420;52.256;9.096;2022-09-03T21:47:36;19.40;78.70
40732;DHT22;26420;52.256;9.096;2022-09-03T21:53:04;19.40;78.80
40732;DHT22;26420;52.256;9.096;2022-09-03T21:58:25;19.30;79.00
40732;DHT22;26420;52.256;9.096;2022-09-03T22:03:31;19.30;79.10
40732;DHT22;26420;52.256;9.096;2022-09-03T22:14:35;19.20;79.60
40732;DHT22;26420;52.256;9.096;2022-09-03T22:19:17;19.10;80.10
40732;DHT22;26420;52.256;9.096;2022-09-03T22:24:30;19.10;80.20
40732;DHT22;26420;52.256;9.096;2022-09-03T22:30:06;19.10;80.50
40732;DHT22;26420;52.256;9.096;2022-09-03T22:40:57;18.80;81.70
40732;DHT22;26420;52.256;9.096;2022-09-03T22:46:16;18.70;81.50
40732;DHT22;26420;52.256;9.096;2022-09-03T22:51:19;18.50;82.30
40732;DHT22;26420;52.256;9.096;2022-09-03T22:56:22;18.30;83.10
40732;DHT22;26420;52.256;9.096;2022-09-03T23:01:41;17.90;84.20
40732;DHT22;26420;52.256;9.096;2022-09-03T23:06:50;17.60;85.30
40732;DHT22;26420;52.256;9.096;2022-09-03T23:11:59;17.70;85.10
40732;DHT22;26420;52.256;9.096;2022-09-03T23:17:11;17.70;86.30
40732;DHT22;26420;52.256;9.096;2022-09-03T23:22:21;17.30;87.10
40732;DHT22;26420;52.256;9.096;2022-09-03T23:27:37;17.20;87.70
40732;DHT22;26420;52.256;9.096;2022-09-03T23:32:40;17.20;88.00
40732;DHT22;26420;52.256;9.096;2022-09-03T23:43:22;16.80;89.60
40732;DHT22;26420;52.256;9.096;2022-09-03T23:54:05;16.60;90.20
